createdAt,value
2022-08-27T00:00:10.007Z,74.27
2022-08-27T00:00:48.981Z,74.65
2022-08-27T00:01:49.045Z,74.65
2022-08-27T00:02:49.030Z,74.55
2022-08-27T00:03:48.980Z,74.94
2022-08-27T00:04:48.942Z,75.00
2022-08-27T00:06:09.910Z,75.10
2022-08-27T00:06:48.919Z,75.00
2022-08-27T00:07:48.873Z,75.10
2022-08-27T00:08:48.873Z,75.00
2022-08-27T00:09:48.834Z,74.81
2022-08-27T00:10:48.829Z,75.00
2022-08-27T00:12:09.834Z,75.10
2022-08-27T00:12:48.795Z,74.75
2022-08-27T00:13:48.801Z,74.90
2022-08-27T00:14:48.753Z,74.90
2022-08-27T00:15:48.772Z,74.90
2022-08-27T00:16:48.767Z,75.29
2022-08-27T00:18:09.830Z,75.39
2022-08-27T00:18:48.698Z,75.29
2022-08-27T00:19:49.560Z,75.10
2022-08-27T00:20:48.670Z,74.81
2022-08-27T00:21:48.652Z,75.00
2022-08-27T00:22:48.644Z,74.90
2022-08-27T00:24:09.606Z,74.94
2022-08-27T00:24:49.277Z,74.94
2022-08-27T00:25:48.577Z,75.10
2022-08-27T00:26:48.593Z,74.81
2022-08-27T00:27:48.546Z,74.90
2022-08-27T00:28:48.560Z,75.00
2022-08-27T00:30:09.545Z,75.10
2022-08-27T00:30:49.077Z,75.39
2022-08-27T00:31:52.982Z,75.00
2022-08-27T00:32:48.483Z,75.10
2022-08-27T00:33:48.467Z,75.48
2022-08-27T00:34:48.429Z,75.39
2022-08-27T00:36:09.441Z,75.10
2022-08-27T00:36:48.398Z,75.20
2022-08-27T00:37:48.420Z,75.48
2022-08-27T00:38:48.364Z,75.39
2022-08-27T00:39:48.360Z,75.43
2022-08-27T00:40:48.335Z,75.43
2022-08-27T00:42:09.320Z,75.20
2022-08-27T00:42:48.432Z,75.39
2022-08-27T00:43:48.287Z,75.43
2022-08-27T00:44:48.295Z,75.39
2022-08-27T00:45:48.398Z,75.48
2022-08-27T00:46:48.268Z,75.29
2022-08-27T00:48:09.369Z,75.39
2022-08-27T00:48:48.230Z,75.29
2022-08-27T00:49:48.182Z,75.00
2022-08-27T00:50:49.089Z,75.29
2022-08-27T00:51:48.183Z,75.00
2022-08-27T00:52:48.156Z,75.29
2022-08-27T00:54:09.149Z,75.00
2022-08-27T00:54:48.117Z,75.29
2022-08-27T00:55:48.121Z,75.00
2022-08-27T00:56:51.847Z,74.90
2022-08-27T00:57:48.064Z,74.71
2022-08-27T00:58:48.039Z,75.00
2022-08-27T01:00:09.037Z,74.81
2022-08-27T01:00:48.156Z,75.00
2022-08-27T01:01:48.044Z,75.10
2022-08-27T01:02:48.018Z,74.81
2022-08-27T01:03:47.976Z,75.13
2022-08-27T01:04:47.960Z,75.00
2022-08-27T01:06:08.961Z,75.10
2022-08-27T01:06:47.933Z,75.00
2022-08-27T01:07:47.897Z,74.81
2022-08-27T01:08:48.587Z,74.81
2022-08-27T01:09:47.855Z,74.81
2022-08-27T01:10:47.866Z,74.90
2022-08-27T01:12:08.897Z,74.90
2022-08-27T01:12:53.380Z,75.29
2022-08-27T01:13:59.565Z,75.29
2022-08-27T01:14:47.778Z,75.20
2022-08-27T01:15:47.781Z,75.10
2022-08-27T01:16:47.753Z,75.29
2022-08-27T01:18:08.944Z,75.20
2022-08-27T01:18:47.718Z,75.29
2022-08-27T01:19:47.725Z,75.20
2022-08-27T01:20:47.686Z,75.29
2022-08-27T01:21:50.601Z,75.29
2022-08-27T01:22:47.699Z,75.10
2022-08-27T01:24:08.639Z,75.20
2022-08-27T01:24:47.653Z,75.20
2022-08-27T01:25:47.618Z,75.10
2022-08-27T01:26:47.595Z,75.29
2022-08-27T01:27:47.573Z,75.68
2022-08-27T01:28:47.570Z,75.29
2022-08-27T01:30:08.534Z,75.20
2022-08-27T01:30:48.103Z,75.20
2022-08-27T01:31:47.536Z,75.29
2022-08-27T01:32:47.525Z,75.29
2022-08-27T01:33:47.467Z,75.20
2022-08-27T01:34:47.467Z,75.48
2022-08-27T01:36:08.463Z,75.10
2022-08-27T01:36:47.414Z,75.48
2022-08-27T01:37:47.607Z,75.10
2022-08-27T01:38:47.392Z,75.45
2022-08-27T01:39:47.374Z,75.58
2022-08-27T01:40:47.350Z,75.39
2022-08-27T01:42:08.337Z,75.39
2022-08-27T01:42:47.324Z,75.48
2022-08-27T01:43:47.323Z,75.39
2022-08-27T01:44:47.311Z,75.39
2022-08-27T01:45:47.283Z,75.29
2022-08-27T01:46:47.304Z,75.39
2022-08-27T01:48:08.245Z,75.39
2022-08-27T01:48:47.236Z,75.48
2022-08-27T01:49:47.209Z,75.26
2022-08-27T01:50:47.200Z,75.26
2022-08-27T01:51:47.173Z,75.78
2022-08-27T01:52:48.107Z,75.68
2022-08-27T01:54:08.160Z,75.48
2022-08-27T01:54:47.125Z,75.39
2022-08-27T01:55:47.665Z,75.68
2022-08-27T01:56:47.101Z,75.68
2022-08-27T01:57:47.091Z,75.39
2022-08-27T01:58:47.088Z,75.68
2022-08-27T02:00:08.054Z,75.48
2022-08-27T02:00:47.072Z,75.39
2022-08-27T02:01:47.047Z,75.39
2022-08-27T02:02:47.034Z,75.39
2022-08-27T02:03:46.983Z,75.39
2022-08-27T02:04:46.954Z,75.58
2022-08-27T02:06:07.958Z,75.48
2022-08-27T02:06:46.948Z,75.39
2022-08-27T02:07:46.908Z,75.29
2022-08-27T02:08:46.917Z,75.20
2022-08-27T02:09:46.888Z,75.29
2022-08-27T02:10:46.989Z,75.48
2022-08-27T02:12:07.860Z,75.64
2022-08-27T02:12:46.840Z,75.58
2022-08-27T02:13:46.838Z,75.39
2022-08-27T02:14:48.484Z,75.48
2022-08-27T02:15:46.791Z,75.45
2022-08-27T02:16:52.630Z,75.48
2022-08-27T02:18:07.772Z,75.54
2022-08-27T02:18:46.744Z,75.64
2022-08-27T02:19:46.735Z,75.10
2022-08-27T02:20:46.690Z,75.26
2022-08-27T02:21:46.701Z,75.20
2022-08-27T02:22:46.664Z,75.64
2022-08-27T02:24:08.617Z,75.29
2022-08-27T02:24:46.650Z,75.54
2022-08-27T02:25:46.630Z,75.74
2022-08-27T02:26:46.679Z,75.35
2022-08-27T02:27:47.139Z,75.45
2022-08-27T02:28:46.588Z,75.64
2022-08-27T02:30:07.547Z,75.64
2022-08-27T02:30:46.563Z,75.74
2022-08-27T02:31:46.596Z,75.26
2022-08-27T02:32:46.511Z,75.26
2022-08-27T02:33:46.470Z,75.54
2022-08-27T02:34:46.494Z,75.35
2022-08-27T02:36:07.440Z,75.26
2022-08-27T02:36:46.453Z,75.45
2022-08-27T02:37:46.441Z,75.26
2022-08-27T02:38:46.401Z,75.45
2022-08-27T02:39:46.393Z,75.74
2022-08-27T02:40:46.388Z,75.64
2022-08-27T02:42:07.359Z,75.64
2022-08-27T02:42:46.330Z,75.54
2022-08-27T02:43:46.319Z,75.35
2022-08-27T02:44:46.314Z,75.26
2022-08-27T02:45:46.293Z,75.64
2022-08-27T02:46:46.314Z,75.45
2022-08-27T02:48:07.246Z,75.64
2022-08-27T02:48:46.304Z,75.45
2022-08-27T02:49:48.502Z,75.64
2022-08-27T02:50:46.330Z,75.45
2022-08-27T02:51:46.284Z,75.48
2022-08-27T02:52:46.586Z,75.64
2022-08-27T02:54:08.520Z,75.84
2022-08-27T02:54:46.157Z,75.93
2022-08-27T02:55:46.115Z,75.93
2022-08-27T02:56:46.107Z,75.93
2022-08-27T02:57:46.095Z,75.84
2022-08-27T02:58:46.069Z,75.74
2022-08-27T03:00:07.074Z,76.12
2022-08-27T03:00:46.038Z,76.32
2022-08-27T03:01:46.115Z,76.03
2022-08-27T03:02:46.738Z,76.32
2022-08-27T03:03:46.005Z,76.03
2022-08-27T03:04:45.962Z,76.12
2022-08-27T03:06:06.954Z,75.84
2022-08-27T03:06:45.942Z,76.12
2022-08-27T03:07:45.929Z,75.93
2022-08-27T03:08:52.309Z,76.12
2022-08-27T03:09:45.883Z,76.12
2022-08-27T03:10:45.875Z,76.12
2022-08-27T03:12:07.628Z,76.12
2022-08-27T03:12:45.832Z,76.03
2022-08-27T03:13:45.820Z,76.22
2022-08-27T03:14:45.793Z,75.84
2022-08-27T03:15:45.848Z,76.12
2022-08-27T03:16:45.769Z,76.22
2022-08-27T03:18:06.743Z,75.84
2022-08-27T03:18:45.769Z,76.03
2022-08-27T03:19:45.713Z,75.84
2022-08-27T03:20:45.711Z,76.03
2022-08-27T03:21:45.670Z,75.84
2022-08-27T03:22:45.754Z,75.84
2022-08-27T03:24:09.508Z,75.84
2022-08-27T03:24:48.147Z,76.03
2022-08-27T03:25:45.609Z,76.12
2022-08-27T03:26:52.893Z,76.22
2022-08-27T03:27:45.619Z,76.12
2022-08-27T03:28:45.573Z,75.87
2022-08-27T03:30:06.618Z,76.03
2022-08-27T03:30:45.533Z,75.74
2022-08-27T03:31:45.567Z,76.16
2022-08-27T03:32:45.522Z,76.22
2022-08-27T03:33:45.492Z,76.12
2022-08-27T03:34:45.464Z,76.06
2022-08-27T03:36:06.453Z,75.84
2022-08-27T03:36:46.905Z,76.12
2022-08-27T03:37:46.140Z,76.06
2022-08-27T03:38:45.404Z,75.87
2022-08-27T03:39:45.385Z,76.26
2022-08-27T03:40:45.401Z,76.03
2022-08-27T03:42:06.343Z,76.06
2022-08-27T03:42:45.343Z,76.06
2022-08-27T03:43:45.310Z,76.16
2022-08-27T03:44:45.315Z,75.97
2022-08-27T03:45:57.075Z,75.87
2022-08-27T03:46:46.208Z,75.68
2022-08-27T03:48:06.264Z,75.78
2022-08-27T03:48:45.239Z,75.78
2022-08-27T03:49:45.221Z,75.78
2022-08-27T03:50:45.214Z,75.78
2022-08-27T03:51:45.199Z,76.16
2022-08-27T03:52:45.170Z,75.78
2022-08-27T03:54:06.163Z,75.97
2022-08-27T03:54:45.138Z,75.78
2022-08-27T03:55:45.121Z,75.97
2022-08-27T03:56:45.102Z,75.68
2022-08-27T03:57:45.099Z,76.06
2022-08-27T03:58:45.085Z,76.06
2022-08-27T04:00:06.053Z,76.16
2022-08-27T04:00:45.058Z,75.97
2022-08-27T04:01:45.093Z,75.87
2022-08-27T04:02:45.046Z,75.97
2022-08-27T04:03:44.991Z,75.97
2022-08-27T04:04:44.982Z,75.97
2022-08-27T04:06:05.954Z,76.06
2022-08-27T04:06:44.953Z,76.16
2022-08-27T04:07:44.922Z,75.87
2022-08-27T04:08:45.675Z,75.97
2022-08-27T04:09:44.919Z,76.06
2022-08-27T04:10:44.879Z,76.16
2022-08-27T04:12:05.870Z,76.59
2022-08-27T04:12:44.843Z,76.45
2022-08-27T04:13:44.835Z,76.87
2022-08-27T04:14:44.808Z,76.93
2022-08-27T04:15:44.855Z,76.78
2022-08-27T04:16:44.781Z,76.78
2022-08-27T04:18:05.762Z,76.97
2022-08-27T04:18:44.775Z,76.68
2022-08-27T04:19:44.728Z,76.78
2022-08-27T04:20:44.723Z,76.68
2022-08-27T04:21:44.694Z,76.68
2022-08-27T04:22:44.686Z,76.78
2022-08-27T04:24:05.661Z,76.87
2022-08-27T04:24:45.602Z,76.68
2022-08-27T04:25:44.624Z,76.78
2022-08-27T04:26:44.625Z,76.20
2022-08-27T04:27:44.636Z,76.39
2022-08-27T04:28:48.810Z,76.49
2022-08-27T04:30:05.581Z,76.59
2022-08-27T04:30:45.222Z,76.39
2022-08-27T04:31:44.621Z,76.68
2022-08-27T04:32:44.511Z,76.20
2022-08-27T04:33:50.969Z,76.29
2022-08-27T04:34:44.480Z,76.10
2022-08-27T04:36:05.476Z,76.01
2022-08-27T04:36:44.448Z,76.01
2022-08-27T04:37:44.448Z,76.10
2022-08-27T04:38:44.418Z,76.33
2022-08-27T04:39:49.760Z,76.39
2022-08-27T04:40:44.425Z,76.68
2022-08-27T04:42:05.376Z,76.39
2022-08-27T04:42:44.364Z,76.62
2022-08-27T04:43:44.343Z,76.43
2022-08-27T04:44:44.334Z,76.82
2022-08-27T04:45:44.303Z,76.62
2022-08-27T04:46:47.902Z,76.72
2022-08-27T04:48:05.317Z,76.82
2022-08-27T04:48:48.057Z,76.72
2022-08-27T04:49:44.236Z,76.82
2022-08-27T04:50:44.234Z,76.43
2022-08-27T04:51:44.237Z,76.62
2022-08-27T04:52:44.194Z,76.53
2022-08-27T04:54:05.698Z,76.53
2022-08-27T04:54:44.153Z,76.86
2022-08-27T04:55:44.155Z,76.95
2022-08-27T04:56:44.125Z,77.01
2022-08-27T04:57:44.124Z,76.86
2022-08-27T04:58:44.120Z,76.95
2022-08-27T05:00:05.092Z,76.76
2022-08-27T05:00:44.123Z,76.76
2022-08-27T05:01:44.101Z,76.76
2022-08-27T05:02:44.049Z,76.95
2022-08-27T05:03:44.021Z,76.95
2022-08-27T05:04:44.062Z,76.86
2022-08-27T05:06:05.023Z,76.95
2022-08-27T05:06:43.980Z,77.05
2022-08-27T05:07:43.982Z,77.05
2022-08-27T05:08:43.943Z,76.76
2022-08-27T05:09:43.953Z,76.95
2022-08-27T05:12:04.926Z,76.79
2022-08-27T05:12:44.584Z,76.60
2022-08-27T05:13:43.879Z,76.70
2022-08-27T05:14:43.889Z,76.79
2022-08-27T05:15:44.777Z,76.79
2022-08-27T05:18:17.956Z,76.70
2022-08-27T05:19:15.333Z,76.31
2022-08-27T05:20:15.324Z,76.79
2022-08-27T05:21:15.392Z,76.41
2022-08-27T05:22:15.327Z,76.70
2022-08-27T05:23:15.956Z,76.51
2022-08-27T05:24:15.254Z,76.41
2022-08-27T05:25:15.256Z,76.41
2022-08-27T05:26:15.284Z,76.70
2022-08-27T05:27:15.254Z,76.60
2022-08-27T05:28:15.202Z,76.70
2022-08-27T05:29:15.184Z,76.51
2022-08-27T05:30:15.186Z,76.60
2022-08-27T05:31:15.276Z,76.31
2022-08-27T05:32:15.931Z,76.79
2022-08-27T05:33:15.119Z,76.60
2022-08-27T05:34:16.475Z,76.51
2022-08-27T05:35:15.826Z,76.60
2022-08-27T05:36:15.109Z,76.99
2022-08-27T05:37:15.108Z,76.79
2022-08-27T05:38:15.050Z,76.35
2022-08-27T05:39:15.035Z,77.09
2022-08-27T05:40:15.087Z,76.83
2022-08-27T05:41:15.021Z,77.03
2022-08-27T05:42:14.981Z,77.12
2022-08-27T05:43:14.969Z,76.64
2022-08-27T05:44:39.433Z,76.45
2022-08-27T05:45:15.000Z,76.74
2022-08-27T05:46:17.512Z,76.48
2022-08-27T05:47:14.908Z,76.48
2022-08-27T05:48:14.899Z,76.78
2022-08-27T05:49:14.882Z,76.58
2022-08-27T05:50:14.878Z,76.78
2022-08-27T05:51:16.187Z,76.78
2022-08-27T05:52:14.833Z,76.10
2022-08-27T05:53:14.832Z,76.39
2022-08-27T05:54:14.825Z,76.23
2022-08-27T05:55:14.819Z,76.48
2022-08-27T05:56:14.772Z,76.32
2022-08-27T05:57:14.757Z,75.94
2022-08-27T05:58:14.752Z,76.32
2022-08-27T05:59:14.747Z,76.52
2022-08-27T06:00:15.709Z,76.14
2022-08-27T06:01:14.700Z,76.52
2022-08-27T06:02:14.742Z,76.42
2022-08-27T06:03:14.670Z,76.52
2022-08-27T06:04:17.944Z,76.32
2022-08-27T06:05:15.522Z,76.56
2022-08-27T06:06:14.619Z,76.46
2022-08-27T06:07:14.616Z,76.37
2022-08-27T06:08:14.611Z,76.46
2022-08-27T06:09:14.610Z,76.37
2022-08-27T06:10:14.565Z,76.46
2022-08-27T06:11:14.549Z,76.27
2022-08-27T06:12:14.555Z,76.27
2022-08-27T06:13:14.525Z,76.27
2022-08-27T06:14:14.541Z,76.07
2022-08-27T06:15:14.495Z,75.98
2022-08-27T06:16:14.528Z,75.88
2022-08-27T06:17:14.479Z,76.01
2022-08-27T06:18:14.456Z,76.21
2022-08-27T06:19:14.469Z,75.72
2022-08-27T06:20:14.424Z,75.92
2022-08-27T06:21:14.407Z,76.01
2022-08-27T06:22:14.410Z,76.01
2022-08-27T06:23:14.383Z,75.62
2022-08-27T06:24:14.954Z,75.72
2022-08-27T06:25:14.344Z,75.72
2022-08-27T06:26:14.345Z,75.76
2022-08-27T06:27:14.320Z,76.05
2022-08-27T06:28:14.317Z,76.05
2022-08-27T06:29:14.340Z,76.15
2022-08-27T06:30:17.399Z,75.99
2022-08-27T06:31:14.300Z,75.89
2022-08-27T06:32:14.251Z,75.51
2022-08-27T06:33:14.264Z,75.64
2022-08-27T06:34:14.271Z,75.54
2022-08-27T06:35:14.881Z,75.45
2022-08-27T06:36:14.213Z,75.48
2022-08-27T06:37:14.205Z,74.90
2022-08-27T06:38:14.193Z,74.90
2022-08-27T06:39:14.202Z,74.99
2022-08-27T06:40:14.237Z,75.32
2022-08-27T06:41:23.316Z,74.93
2022-08-27T06:42:14.138Z,74.65
2022-08-27T06:43:14.111Z,74.78
2022-08-27T06:44:14.128Z,74.49
2022-08-27T06:45:14.070Z,74.19
2022-08-27T06:46:14.186Z,73.80
2022-08-27T06:47:14.065Z,74.19
2022-08-27T06:48:14.063Z,74.33
2022-08-27T06:49:14.070Z,73.80
2022-08-27T06:50:17.630Z,73.41
2022-08-27T06:51:14.000Z,73.65
2022-08-27T06:52:13.996Z,73.55
2022-08-27T06:53:13.994Z,73.94
2022-08-27T06:54:13.981Z,73.45
2022-08-27T06:55:13.941Z,73.68
2022-08-27T06:56:13.943Z,73.10
2022-08-27T06:57:13.930Z,73.49
2022-08-27T06:58:13.934Z,73.03
2022-08-27T06:59:13.932Z,73.23
2022-08-27T07:00:13.878Z,72.55
2022-08-27T07:01:13.916Z,71.90
2022-08-27T07:02:13.930Z,72.09
2022-08-27T07:03:13.876Z,72.13
2022-08-27T07:04:13.847Z,71.94
2022-08-27T07:05:14.497Z,71.74
2022-08-27T07:06:13.804Z,71.68
2022-08-27T07:07:13.804Z,71.68
2022-08-27T07:08:13.795Z,71.39
2022-08-27T07:09:13.777Z,71.39
2022-08-27T07:10:14.524Z,71.03
2022-08-27T07:11:13.749Z,70.64
2022-08-27T07:12:13.745Z,69.99
2022-08-27T07:13:13.728Z,69.46
2022-08-27T07:14:13.729Z,69.11
2022-08-27T07:15:13.729Z,68.23
2022-08-27T07:16:14.570Z,68.16
2022-08-27T07:17:16.372Z,68.36
2022-08-27T07:18:13.681Z,68.16
2022-08-27T07:19:13.669Z,67.80
2022-08-27T07:20:13.655Z,67.71
2022-08-27T07:21:13.659Z,67.32
2022-08-27T07:22:14.498Z,66.56
2022-08-27T07:23:13.614Z,66.47
2022-08-27T07:24:13.611Z,66.76
2022-08-27T07:25:13.607Z,66.69
2022-08-27T07:26:13.603Z,66.79
2022-08-27T07:27:13.606Z,66.20
2022-08-27T07:28:13.593Z,65.03
2022-08-27T07:29:13.550Z,65.06
2022-08-27T07:30:13.538Z,64.18
2022-08-27T07:31:13.637Z,64.28
2022-08-27T07:32:13.544Z,64.28
2022-08-27T07:33:13.556Z,64.31
2022-08-27T07:34:13.533Z,63.82
2022-08-27T07:35:13.492Z,63.53
2022-08-27T07:36:13.477Z,63.72
2022-08-27T07:37:13.482Z,63.92
2022-08-27T07:38:13.486Z,63.23
2022-08-27T07:39:14.007Z,63.53
2022-08-27T07:40:13.520Z,63.43
2022-08-27T07:41:13.426Z,63.46
2022-08-27T07:42:13.412Z,63.07
2022-08-27T07:43:13.418Z,63.07
2022-08-27T07:44:13.425Z,62.87
2022-08-27T07:45:13.414Z,63.46
2022-08-27T07:46:13.456Z,63.36
2022-08-27T07:47:13.370Z,63.68
2022-08-27T07:48:13.355Z,63.59
2022-08-27T07:49:13.359Z,63.68
2022-08-27T07:50:13.375Z,63.29
2022-08-27T07:51:13.371Z,62.60
2022-08-27T07:52:14.024Z,63.10
2022-08-27T07:53:13.305Z,62.81
2022-08-27T07:54:13.292Z,62.70
2022-08-27T07:55:13.296Z,62.51
2022-08-27T07:56:13.288Z,62.54
2022-08-27T07:57:13.307Z,62.41
2022-08-27T07:58:18.142Z,61.82
2022-08-27T07:59:13.252Z,62.31
2022-08-27T08:00:13.260Z,61.92
2022-08-27T08:01:13.303Z,61.72
2022-08-27T08:02:13.265Z,62.02
2022-08-27T08:03:13.249Z,61.52
2022-08-27T08:04:16.971Z,61.52
2022-08-27T08:05:13.186Z,61.72
2022-08-27T08:06:13.198Z,61.72
2022-08-27T08:07:13.171Z,62.12
2022-08-27T08:08:13.180Z,62.41
2022-08-27T08:09:13.183Z,62.12
2022-08-27T08:10:13.178Z,62.02
2022-08-27T08:11:13.127Z,62.90
2022-08-27T08:12:13.123Z,62.08
2022-08-27T08:13:13.150Z,62.51
2022-08-27T08:14:13.136Z,62.70
2022-08-27T08:15:13.131Z,62.70
2022-08-27T08:16:13.103Z,62.08
2022-08-27T08:17:13.125Z,62.97
2022-08-27T08:18:13.065Z,62.48
2022-08-27T08:19:13.053Z,63.17
2022-08-27T08:20:24.135Z,62.97
2022-08-27T08:21:13.068Z,62.87
2022-08-27T08:22:13.079Z,62.87
2022-08-27T08:23:13.010Z,63.07
2022-08-27T08:24:13.017Z,62.97
2022-08-27T08:25:13.024Z,63.07
2022-08-27T08:26:12.993Z,63.56
2022-08-27T08:27:12.986Z,63.17
2022-08-27T08:28:12.996Z,62.87
2022-08-27T08:29:13.317Z,63.07
2022-08-27T08:30:12.985Z,63.46
2022-08-27T08:31:12.949Z,63.65
2022-08-27T08:32:12.932Z,63.56
2022-08-27T08:33:12.934Z,63.59
2022-08-27T08:34:15.098Z,63.36
2022-08-27T08:35:12.891Z,63.49
2022-08-27T08:36:12.886Z,63.20
2022-08-27T08:37:12.863Z,63.49
2022-08-27T08:38:12.945Z,63.49
2022-08-27T08:39:12.861Z,63.10
2022-08-27T08:40:12.950Z,63.10
2022-08-27T08:41:12.883Z,63.39
2022-08-27T08:42:12.829Z,63.39
2022-08-27T08:43:12.806Z,63.29
2022-08-27T08:44:12.809Z,63.49
2022-08-27T08:45:12.802Z,63.49
2022-08-27T08:46:12.896Z,63.00
2022-08-27T08:47:12.817Z,62.60
2022-08-27T08:48:12.812Z,63.20
2022-08-27T08:49:12.760Z,62.60
2022-08-27T08:50:15.680Z,63.29
2022-08-27T08:51:12.743Z,63.20
2022-08-27T08:52:12.742Z,63.00
2022-08-27T08:53:13.572Z,63.00
2022-08-27T08:54:12.700Z,63.10
2022-08-27T08:55:12.694Z,62.90
2022-08-27T08:56:12.693Z,62.90
2022-08-27T08:57:12.690Z,63.00
2022-08-27T08:58:12.947Z,63.39
2022-08-27T08:59:13.560Z,63.59
2022-08-27T09:00:12.767Z,63.29
2022-08-27T09:01:12.649Z,62.93
2022-08-27T09:02:13.574Z,62.54
2022-08-27T09:03:12.617Z,62.44
2022-08-27T09:04:12.710Z,62.63
2022-08-27T09:05:13.566Z,62.54
2022-08-27T09:06:12.587Z,62.63
2022-08-27T09:07:12.571Z,62.15
2022-08-27T09:08:32.936Z,62.44
2022-08-27T09:09:12.558Z,62.05
2022-08-27T09:10:12.573Z,62.34
2022-08-27T09:11:12.565Z,62.27
2022-08-27T09:12:12.521Z,62.34
2022-08-27T09:13:12.513Z,62.08
2022-08-27T09:14:13.419Z,62.08
2022-08-27T09:15:12.708Z,62.27
2022-08-27T09:16:12.534Z,62.08
2022-08-27T09:17:12.564Z,61.85
2022-08-27T09:18:14.148Z,61.85
2022-08-27T09:19:13.225Z,61.85
2022-08-27T09:20:13.622Z,62.05
2022-08-27T09:21:12.451Z,61.95
2022-08-27T09:22:12.453Z,61.95
2022-08-27T09:23:12.419Z,61.85
2022-08-27T09:24:13.083Z,62.18
2022-08-27T09:25:12.462Z,61.19
2022-08-27T09:26:12.392Z,60.80
2022-08-27T09:27:12.389Z,60.90
2022-08-27T09:28:12.479Z,61.10
2022-08-27T09:29:12.376Z,60.90
2022-08-27T09:30:15.117Z,60.60
2022-08-27T09:31:12.447Z,60.11
2022-08-27T09:32:12.333Z,60.21
2022-08-27T09:33:12.329Z,59.82
2022-08-27T09:34:12.333Z,60.73
2022-08-27T09:35:12.326Z,60.14
2022-08-27T09:36:12.347Z,60.24
2022-08-27T09:37:12.321Z,60.07
2022-08-27T09:38:12.392Z,60.27
2022-08-27T09:39:12.267Z,60.07
2022-08-27T09:40:13.606Z,59.68
2022-08-27T09:41:12.281Z,59.91
2022-08-27T09:42:12.263Z,59.51
2022-08-27T09:43:13.090Z,59.91
2022-08-27T09:44:12.233Z,59.31
2022-08-27T09:45:12.216Z,58.65
2022-08-27T09:46:12.235Z,59.15
2022-08-27T09:47:12.218Z,59.15
2022-08-27T09:48:12.294Z,58.65
2022-08-27T09:49:12.213Z,59.17
2022-08-27T09:50:12.167Z,59.08
2022-08-27T09:51:12.160Z,59.17
2022-08-27T09:52:12.148Z,59.27
2022-08-27T09:53:12.156Z,58.59
2022-08-27T09:54:12.174Z,58.29
2022-08-27T09:55:12.151Z,58.59
2022-08-27T09:56:13.097Z,58.48
2022-08-27T09:57:12.135Z,58.61
2022-08-27T09:58:12.302Z,58.42
2022-08-27T09:59:12.094Z,58.32
2022-08-27T10:00:12.097Z,58.22
2022-08-27T10:01:12.103Z,57.90
2022-08-27T10:02:12.342Z,57.73
2022-08-27T10:03:12.115Z,57.70
2022-08-27T10:04:12.248Z,58.00
2022-08-27T10:05:12.039Z,57.79
2022-08-27T10:06:12.039Z,58.32
2022-08-27T10:07:12.047Z,58.42
2022-08-27T10:08:12.276Z,58.71
2022-08-27T10:09:12.014Z,58.51
2022-08-27T10:10:12.069Z,57.63
2022-08-27T10:11:12.037Z,57.92
2022-08-27T10:12:11.978Z,57.86
2022-08-27T10:13:11.988Z,57.82
2022-08-27T10:14:11.989Z,56.37
2022-08-27T10:15:12.617Z,55.88
2022-08-27T10:16:12.665Z,55.29
2022-08-27T10:17:11.937Z,55.49
2022-08-27T10:18:12.164Z,55.98
2022-08-27T10:19:11.926Z,55.88
2022-08-27T10:20:11.930Z,55.68
2022-08-27T10:21:11.926Z,55.39
2022-08-27T10:22:11.917Z,55.68
2022-08-27T10:23:11.921Z,55.88
2022-08-27T10:24:11.947Z,55.85
2022-08-27T10:25:11.875Z,55.88
2022-08-27T10:26:11.874Z,55.49
2022-08-27T10:27:11.879Z,55.09
2022-08-27T10:28:12.088Z,55.12
2022-08-27T10:29:11.859Z,55.32
2022-08-27T10:30:11.825Z,55.91
2022-08-27T10:31:11.843Z,55.19
2022-08-27T10:32:11.810Z,55.12
2022-08-27T10:33:11.821Z,55.29
2022-08-27T10:34:12.366Z,55.19
2022-08-27T10:35:11.813Z,55.49
2022-08-27T10:36:11.815Z,55.49
2022-08-27T10:37:11.833Z,55.32
2022-08-27T10:38:12.001Z,55.09
2022-08-27T10:39:11.755Z,54.70
2022-08-27T10:40:11.834Z,54.90
2022-08-27T10:41:11.754Z,55.09
2022-08-27T10:42:11.752Z,55.19
2022-08-27T10:43:11.735Z,54.40
2022-08-27T10:44:11.738Z,54.21
2022-08-27T10:45:11.717Z,54.01
2022-08-27T10:46:11.727Z,53.71
2022-08-27T10:47:11.708Z,53.71
2022-08-27T10:48:11.909Z,54.99
2022-08-27T10:49:15.838Z,54.01
2022-08-27T10:50:11.689Z,54.30
2022-08-27T10:51:11.665Z,54.43
2022-08-27T10:52:11.659Z,54.82
2022-08-27T10:53:11.648Z,54.72
2022-08-27T10:54:11.653Z,54.75
2022-08-27T10:55:11.656Z,54.75
2022-08-27T10:56:11.633Z,54.75
2022-08-27T10:57:28.936Z,53.86
2022-08-27T10:58:11.818Z,53.69
2022-08-27T10:59:11.599Z,53.39
2022-08-27T11:00:11.684Z,53.89
2022-08-27T11:01:11.661Z,53.99
2022-08-27T11:02:11.662Z,54.09
2022-08-27T11:03:13.883Z,54.58
2022-08-27T11:04:11.572Z,53.89
2022-08-27T11:05:11.597Z,53.59
2022-08-27T11:06:11.546Z,53.37
2022-08-27T11:07:11.541Z,53.69
2022-08-27T11:08:11.739Z,53.89
2022-08-27T11:09:11.539Z,53.50
2022-08-27T11:10:11.622Z,52.61
2022-08-27T11:11:57.138Z,53.59
2022-08-27T11:12:15.368Z,53.89
2022-08-27T11:13:11.490Z,53.59
2022-08-27T11:14:11.486Z,53.79
2022-08-27T11:15:13.190Z,54.09
2022-08-27T11:16:11.542Z,54.55
2022-08-27T11:17:11.466Z,54.48
2022-08-27T11:18:11.707Z,53.99
2022-08-27T11:19:11.441Z,54.28
2022-08-27T11:20:11.427Z,54.75
2022-08-27T11:21:11.431Z,54.28
2022-08-27T11:22:14.908Z,54.58
2022-08-27T11:23:11.442Z,53.89
2022-08-27T11:24:11.444Z,53.69
2022-08-27T11:25:11.468Z,53.99
2022-08-27T11:26:11.379Z,52.80
2022-08-27T11:27:11.376Z,53.10
2022-08-27T11:28:11.506Z,53.47
2022-08-27T11:29:11.361Z,53.39
2022-08-27T11:30:11.359Z,52.98
2022-08-27T11:31:11.410Z,52.87
2022-08-27T11:32:11.387Z,53.47
2022-08-27T11:33:13.928Z,53.96
2022-08-27T11:34:11.316Z,53.67
2022-08-27T11:35:11.320Z,53.67
2022-08-27T11:36:11.304Z,53.96
2022-08-27T11:37:11.317Z,54.06
2022-08-27T11:38:11.486Z,54.16
2022-08-27T11:39:11.310Z,54.36
2022-08-27T11:40:11.313Z,54.36
2022-08-27T11:41:11.258Z,54.55
2022-08-27T11:42:11.275Z,54.06
2022-08-27T11:43:11.248Z,54.16
2022-08-27T11:44:11.242Z,53.77
2022-08-27T11:45:11.248Z,53.96
2022-08-27T11:46:11.260Z,53.96
2022-08-27T11:47:11.242Z,53.77
2022-08-27T11:48:11.379Z,54.36
2022-08-27T11:49:11.214Z,54.48
2022-08-27T11:50:11.193Z,54.28
2022-08-27T11:51:11.213Z,54.28
2022-08-27T11:52:11.193Z,54.09
2022-08-27T11:53:11.161Z,54.36
2022-08-27T11:54:11.156Z,54.68
2022-08-27T11:55:11.145Z,54.78
2022-08-27T11:56:11.161Z,54.78
2022-08-27T11:57:11.141Z,54.48
2022-08-27T11:58:11.492Z,55.18
2022-08-27T11:59:11.143Z,54.48
2022-08-27T12:00:11.116Z,54.38
2022-08-27T12:01:11.102Z,54.51
2022-08-27T12:02:11.101Z,54.78
2022-08-27T12:03:11.159Z,54.78
2022-08-27T12:04:11.138Z,55.00
2022-08-27T12:05:11.102Z,54.80
2022-08-27T12:06:11.085Z,54.21
2022-08-27T12:07:11.965Z,53.92
2022-08-27T12:08:11.224Z,53.62
2022-08-27T12:09:11.049Z,53.62
2022-08-27T12:10:11.051Z,53.62
2022-08-27T12:11:11.030Z,53.64
2022-08-27T12:12:11.051Z,53.85
2022-08-27T12:13:11.033Z,53.81
2022-08-27T12:14:11.056Z,53.62
2022-08-27T12:15:11.010Z,53.72
2022-08-27T12:16:11.020Z,53.62
2022-08-27T12:17:10.997Z,53.72
2022-08-27T12:18:11.240Z,54.02
2022-08-27T12:19:10.998Z,54.02
2022-08-27T12:20:10.989Z,54.41
2022-08-27T12:21:11.004Z,54.41
2022-08-27T12:22:10.940Z,54.02
2022-08-27T12:23:10.933Z,53.92
2022-08-27T12:24:10.942Z,53.72
2022-08-27T12:25:10.918Z,53.72
2022-08-27T12:26:10.938Z,54.02
2022-08-27T12:27:10.936Z,53.92
2022-08-27T12:28:11.790Z,53.72
2022-08-27T12:29:10.885Z,53.22
2022-08-27T12:30:10.882Z,53.52
2022-08-27T12:31:10.947Z,53.13
2022-08-27T12:32:10.883Z,53.33
2022-08-27T12:33:10.864Z,53.52
2022-08-27T12:34:10.892Z,53.22
2022-08-27T12:35:11.714Z,54.02
2022-08-27T12:36:11.074Z,54.02
2022-08-27T12:37:10.831Z,53.52
2022-08-27T12:38:11.077Z,53.03
2022-08-27T12:39:10.822Z,53.03
2022-08-27T12:40:10.881Z,52.83
2022-08-27T12:41:10.834Z,53.00
2022-08-27T12:42:11.698Z,53.22
2022-08-27T12:43:10.777Z,53.59
2022-08-27T12:44:10.770Z,53.50
2022-08-27T12:45:10.791Z,53.30
2022-08-27T12:46:10.780Z,53.69
2022-08-27T12:47:10.862Z,53.10
2022-08-27T12:48:10.915Z,53.69
2022-08-27T12:49:37.847Z,53.69
2022-08-27T12:50:10.721Z,53.59
2022-08-27T12:51:10.718Z,53.50
2022-08-27T12:52:10.728Z,53.59
2022-08-27T12:53:10.732Z,53.20
2022-08-27T12:54:10.719Z,53.39